NWS Home NWS Lubbock West Texas Mesonet Latest Conditions as of 0920 AM, Tue May 03, 2016

Latest   N   C   S   Daily Sum   3hrΔ   24hrΔ   Soil Data 
Site Map   24hr Precip   72hr Precip   Google Plot


Station Time of Last Temp Dew Pt. RH Wind Direction Wind Speed Wind Gust Max Wind Max Temp Min Temp Max RH Min RH Altimeter 1HR Rain Today's Rain Solar Rad
Abernathy 5ENE  09:15 AM 58 42 56% SW1417 18 mph 230° @ 0905 AM 58 40 84 56 30.13" 0 0 436
Aiken 3WSW  09:15 AM 57 42 56% SW1113 15 mph 221° @ 0913 AM 57 37 88 56 30.13" 0 0 470
Amarillo 15NNW   09:15 AM 51 42 72% NE67 16 mph 3° @ 0829 AM 51 42 87 68 30.14" 0 0 153
Amarillo 7SSE  09:15 AM 55 42 61% W911 16 mph 255° @ 0854 AM 55 36 90 60 30.12" 0 0 245
Amarillo 9NNE  09:15 AM 49 42 76% N89 22 mph 354° @ 0839 AM 49 35 95 74 30.15" 0 0 395
Amherst 1NE  09:15 AM 56 39 55% SW1316 16 mph 218° @ 0915 AM 56 41 74 55 30.13" 0 0 435
Andrews 2E  09:15 AM 60 43 54% SW1014 16 mph 205° @ 0855 AM 60 48 76 46 30.14" 0 0 414
Anton 6SSW  09:15 AM 58 43 58% SW1619 19 mph 221° @ 0910 AM 58 38 70 48 30.13" 0 0 426
Aspermont 3NE  09:15 AM 59 46 62% S35 7 mph 168° @ 0100 AM 59 38 98 62 30.13" 0 0 475
Big Bend NP - Persimmon Gap  09:15 AM 60 43 53% NE1313 21 mph 20° @ 0634 AM 63 55 62 43 30.13" 0 0 414
Big Lake 1WNW  09:15 AM 58 48 69% S1012 12 mph 172° @ 0912 AM 58 45 93 68 30.15" 0 0 369
Bootleg 11WNW  09:15 AM 55 38 52% SW1618 21 mph 234° @ 0913 AM 55 38 85 51 30.13" 0 0 323
Boys Ranch 1WSW  09:15 AM 56 42 60% NE58 12 mph 22° @ 0841 AM 56 34 98 57 30.15" 0 0 429
Brownfield 2S  09:15 AM 56 42 59% SW912 12 mph 210° @ 0915 AM 56 42 75 56 30.13" 0 0 445
Canadian 6E  09:15 AM 48 42 82% SW34 8 mph 9° @ 0825 AM 48 38 91 66 30.10" 0 0 105
Caprock Canyons State Park  09:15 AM 58 42 56% SE56 11 mph 275° @ 0540 AM 58 43 83 55 30.12" 0 0 383
Childress 2NNE  09:15 AM 59 42 54% S58 11 mph 106° @ 1225 AM 59 44 84 54 30.12" 0 0 465
Clarendon 2WSW  09:15 AM 58 40 52% S811 12 mph 200° @ 0905 AM 58 35 87 52 30.11" 0 0 451
Claude 12SW  09:15 AM 55 39 56% SW89 12 mph 218° @ 0804 AM 55 45 68 55 30.11" 0 0 133
Clyde 2WNW  09:15 AM 59 49 68% S67 11 mph 170° @ 0315 AM 59 47 92 68 30.15" 0 0 474
Coyanosa 2N  09:15 AM 63 42 47% SE56 10 mph 131° @ 0232 AM 63 44 73 44 30.13" 0 0 342
Dell City  09:15 AM 57 35 44% W22 11 mph 160° @ 1210 AM 57 39 75 44 30.16" 0 0 395
Denver City 7WNW  09:15 AM 58 41 55% SW1418 18 mph 207° @ 0915 AM 58 37 76 49 30.13" 0 0 418
Dimmitt 2NE  09:15 AM 56 39 53% SW1419 20 mph 212° @ 0900 AM 56 39 82 53 30.12" 0 0 360
Dora NM 2SW  09:15 AM 58 38 48% SW1825 25 mph 241° @ 0915 AM 58 39 78 48 30.14" 0 0 331
Dozier 3W  09:15 AM 55 44 65% SW23 5 mph 38° @ 0142 AM 55 40 88 65 30.12" 0 0 462
Floydada 2NNE  09:15 AM 57 41 57% SW1419 19 mph 232° @ 0915 AM 57 38 87 57 30.12" 0 0 464
Fluvanna 3WNW  09:15 AM 58 45 63% SW1215 17 mph 203° @ 0910 AM 58 45 80 59 30.14" 0 0 425
Fort Chadbourne  09:15 AM 58 51 77% SE12 6 mph 54° @ 0503 AM 58 43 99 75 30.15" 0 0 461
Fort Lancaster  09:15 AM 60 48 66% E23 14 mph 115° @ 1202 AM 60 43 95 60 30.14" 0 0 425
Fort McKavett  09:15 AM 55 49 81% N11 5 mph 215° @ 0412 AM 55 37 99 81 30.16" 0 0 460
Friona 2NE  09:15 AM 55 39 56% SW1215 15 mph 217° @ 0910 AM 55 37 87 56 30.12" 0 0 434
Gail 2ESE  09:15 AM 59 45 61% SW912 12 mph 203° @ 0850 AM 59 43 87 59 30.13" 0 0 408
Goodlett 3W  09:15 AM 57 44 61% S58 9 mph 120° @ 0225 AM 57 43 86 60 30.11" 0 0 453
Goodnight  09:15 AM 54 42 63% S45 11 mph 245° @ 0546 AM 56 39 90 59 30.12" 0 0 221
Graham 5SSW  09:15 AM 58 44 61% SW913 13 mph 211° @ 0915 AM 58 48 72 48 30.13" 0 0 407
Guadalupe Mtns Natl Park  09:15 AM 57 33 40% SE45 11 mph 303° @ 0355 AM 57 43 59 39 30.20" 0 0 395
Guthrie 10WSW  09:15 AM 61 44 54% SW711 11 mph 238° @ 0915 AM 61 44 79 54 30.12" 0 0 409
Hart 3N  09:15 AM 57 40 54% SW1622 22 mph 232° @ 0915 AM 57 38 83 54 30.12" 0 0 436
Haskell 1NW  09:15 AM 59 46 65% SW911 11 mph 222° @ 0915 AM 59 46 89 65 30.13" 0 0 434
Hereford 2NW  09:15 AM 56 38 51% SW1214 16 mph 221° @ 0905 AM 56 37 80 51 30.11" 0 0 448
Hobbs NM 5NW  09:15 AM 57 41 55% SW1417 18 mph 211° @ 0906 AM 57 42 78 45 30.16" 0 0 399
Jayton 1SSE  09:15 AM 58 45 62% SW79 10 mph 230° @ 0910 AM 58 42 86 62 30.13" 0 0 442
Junction 1SSW  09:15 AM 55 50 82% NE12 4 mph 204° @ 0534 AM 55 39 100 81 30.16" 0 0 423
Knox City 3NW  09:15 AM 58 45 64% SW25 6 mph 147° @ 1210 AM 58 42 90 64 30.14" 0 0 406
Lake Alan Henry 1NW  09:15 AM 61 45 55% SW57 10 mph 148° @ 1225 AM 61 45 81 52 30.13" 0 0 454
Lamesa 2SE  09:15 AM 57 46 67% SW810 10 mph 206° @ 0915 AM 57 40 85 57 30.15" 0 0 380
Levelland 4S  09:15 AM 58 40 53% SW1317 18 mph 213° @ 0905 AM 58 39 74 44 30.13" 0 0 418
Lomax 1SSE  09:15 AM 59 48 65% SW1113 13 mph 204° @ 0915 AM 59 43 93 65 30.15" 0 0 470
Lubbock 3WNW TTU  09:15 AM 59 41 51% SW913 14 mph 220° @ 0840 AM 59 39 86 51 30.13" 0 0 416
McLean 1E  09:15 AM 56 39 52% SW68 11 mph 204° @ 0905 AM 57 44 78 48 30.10" 0 0 118
Memphis 1NE  09:15 AM 56 40 57% E24 5 mph 58° @ 0235 AM 56 38 85 57 30.12" 0 0 335
Menard 2NW   09:15 AM 52 48 87% SW45 6 mph 253° @ 0904 AM 52 37 100 87 30.16" 0 0 451
Mertzon 3NNE  09:15 AM 58 50 74% S35 6 mph 207° @ 0400 AM 58 39 96 74 30.15" 0 0 438
Morton 1ENE  09:15 AM 58 39 50% SW1315 18 mph 216° @ 0910 AM 58 39 72 49 30.13" 0 0 408
Muleshoe 2SSW  09:15 AM 53 39 59% W57 13 mph 135° @ 0125 AM 53 31 89 59 30.13" 0 0 428
Northfield 1S  09:15 AM 57 42 60% SW69 9 mph 237° @ 0915 AM 57 41 88 49 30.12" 0 0 446
O'Donnell 1N  09:15 AM 57 42 58% SW1214 14 mph 209° @ 0915 AM 57 42 75 46 30.14" 0 0 344
Odell 4ENE  09:15 AM 60 49 67% S56 12 mph 105° @ 1206 AM 60 45 94 65 30.13" 0 0 403
Olton 6S  09:15 AM 57 41 54% SW1721 21 mph 217° @ 0915 AM 57 39 81 54 30.12" 0 0 432
Paducah 10SW  09:15 AM 62 46 58% SW1114 15 mph 237° @ 0910 AM 62 45 82 56 30.11" 0 0 384
Palo Duro Canyon SP Floor  09:15 AM 58 43 58% S23 5 mph 283° @ 0625 AM 58 38 94 58 30.10" 0 0 430
Palo Duro Canyon State Park Rim  09:15 AM 59 41 51% SW711 17 mph 231° @ 0905 AM 59 40 80 51 30.12" 0 0 451
Pampa 2E  09:15 AM 50 41 72% NW1418 18 mph 303° @ 0915 AM 53 37 90 64 30.14" 0 0 206
Panhandle 1SSW  09:15 AM 47 40 77% NW1315 15 mph 335° @ 0915 AM 47 37 92 73 30.15" 0 0 169
Plains 3N  09:15 AM 58 41 53% SW1418 19 mph 209° @ 0845 AM 58 38 75 50 30.13" 0 0 336
Plainview 1S  09:15 AM 57 43 60% SW1014 16 mph 225° @ 0850 AM 57 41 82 60 30.12" 0 0 424
Post 1NE  09:15 AM 61 44 54% SW1013 14 mph 210° @ 0900 AM 61 49 72 51 30.13" 0 0 449
Ralls 1SE  09:15 AM 58 42 54% SW1417 20 mph 223° @ 0910 AM 59 41 74 46 30.14" 0 0 460
Reese Center  09:15 AM 57 41 55% SW1417 18 mph 225° @ 0855 AM 57 40 73 52 30.13" 0 0 459
Roaring Springs 3N  09:15 AM 60 46 61% SW911 16 mph 225° @ 0835 AM 60 43 84 56 30.12" 0 0 372
San Angelo 7NW  09:15 AM 57 49 76% SW24 6 mph 53° @ 1235 AM 57 42 93 76 30.15" 0 0 444
Seagraves 1SW  09:15 AM 58 44 59% SW1215 16 mph 212° @ 0910 AM 58 38 84 52 30.13" 0 0 366
Seminole 2NNE  09:15 AM 59 43 56% SW1115 15 mph 206° @ 0845 AM 59 42 76 54 30.13" 0 0 420
Seymour 3NW  09:15 AM 58 49 72% S710 10 mph 197° @ 0915 AM 58 45 94 72 30.13" 0 0 459
Sierra Blanca 1SSE  09:15 AM 56 35 46% NE46 8 mph 75° @ 0913 AM 56 47 59 40 30.17" 0 0 414
Silverton 7ESE  09:15 AM 57 41 54% SW1619 21 mph 226° @ 0910 AM 58 38 89 54 30.11" 0 0 349
Slaton 2NE  09:15 AM 59 42 53% SW1214 15 mph 222° @ 0855 AM 59 42 76 53 30.13" 0 0 416
Snyder 3E  09:15 AM 58 47 68% S810 12 mph 112° @ 1225 AM 58 45 92 64 30.14" 0 0 371
Snyder 3SSW  09:15 AM 59 46 62% S811 11 mph 207° @ 0911 AM 59 46 90 60 30.14" 0 0 477
Spur 1W  09:15 AM 59 44 59% SW1214 14 mph 229° @ 0915 AM 59 41 85 59 30.12" 0 0 423
St. Lawrence 5SW  09:15 AM 58 48 70% S1013 13 mph 183° @ 0915 AM 58 44 94 70 30.14" 0 0 449
Sterling City 4WSW  09:15 AM 58 49 73% SW57 10 mph 196° @ 0904 AM 58 38 98 73 30.15" 0 0 396
Sundown 8WSW  09:15 AM 58 41 54% SW1217 18 mph 214° @ 0855 AM 58 37 77 49 30.13" 0 0 350
Sweetwater 11SW   09:15 AM 60 47 63% SW910 11 mph 194° @ 0907 AM 60 45 92 63 30.15" 0 0 468
Tahoka 3NNE  09:15 AM 60 43 53% SW1012 13 mph 227° @ 0849 AM 60 39 78 53 30.13" 0 0 449
Tarzan 2WNW  09:15 AM 58 45 62% S79 10 mph 197° @ 0902 AM 58 44 85 52 30.14" 0 0 479
Tatum NM 2SW  09:15 AM 59 41 51% SW1620 21 mph 208° @ 0855 AM 59 35 87 51 30.14" 0 0 379
Throckmorton 1SW  09:15 AM 59 49 71% SW56 8 mph 167° @ 1226 AM 59 45 98 70 30.14" 0 0 501
Tulia 2ENE  09:15 AM 57 44 63% SW1318 21 mph 229° @ 0910 AM 57 44 78 63 30.11" 0 0 387
Turkey 2WSW  09:15 AM 58 42 58% S57 11 mph 258° @ 0515 AM 58 44 81 58 30.11" 0 0 393
Umbarger 3NNE  09:15 AM 56 41 57% SW812 16 mph 232° @ 0908 AM 56 37 90 57 30.12" 0 0 475
Vigo Park  09:15 AM 57 43 58% SW1820 24 mph 227° @ 0911 AM 57 36 91 57 30.12" 0 0 454
Wall 1E  09:15 AM 56 48 75% W46 11 mph 231° @ 0820 AM 56 44 86 71 30.16" 0 0 380
Weinert 2NNE  09:15 AM 60 46 61% SW910 12 mph 236° @ 0914 AM 60 43 90 60 30.14" 0 0 469
Welch  09:15 AM 57 42 58% SW68 10 mph 217° @ 0900 AM 57 41 76 52 30.15" 0 0 451
White River Lake 6NW  09:15 AM 60 43 56% SW1216 16 mph 203° @ 0915 AM 60 47 74 49 30.13" 0 0 453
Wolfforth 6SSW  09:15 AM 58 41 53% SW1418 18 mph 213° @ 0910 AM 58 40 70 50 30.14" 0 0 404

West Texas Mesonet Home   Site Map/Menu  NWS Lubbock Soil Data  Daily Summary Page  24hr Precip  72hr Precip  Google Plot